Latest Weather Observations for Curtin

IDW60801

Issued at 3:35 pm WST Thursday 23 October 2014 (issued every 30 minutes, with the page automatically refreshed every 10 minutes)

About weather observations | Map of weather stations | Latest weather observations for WA | Other Formats
Station Details ID: 003080 Name: CURTIN AERO Lat: -17.58 Lon: 123.83 Height: 77.5 m
Data from the previous 72 hours. | See also: Recent months at Curtin
Date/Time
WST
Temp
°C
App
Temp
°C
Dew
Point
Rel
Hum
%
Delta-T
°C
Wind Press
QNH
hPa
Press
MSL
hPa
Rain
since 9 am
mm
Dir
 
Spd
km/h
Gust
km/h
Spd
kts
Gust
kts
23/03:30pm 35.4 35.2 20.5 41 10.1 NW 22 33 12 18 1008.2 1007.6 0.0
23/03:00pm 36.0 36.1 21.1 42 10.1 NW 22 33 12 18 1008.2 1007.6 0.0
23/02:30pm 35.8 36.2 20.9 42 10.1 NW 20 35 11 19 1008.5 1007.9 0.0
23/02:00pm 35.8 36.0 20.5 41 10.3 NW 20 30 11 16 1008.8 1008.3 0.0
23/01:30pm 36.9 36.5 19.4 36 11.7 WNW 20 30 11 16 1009.0 1008.5 0.0
23/01:00pm 37.5 37.4 19.9 35 11.8 WNW 20 32 11 17 1009.4 1008.9 0.0
23/12:30pm 36.8 36.4 19.3 36 11.6 NW 20 28 11 15 1009.7 1009.2 0.0
23/12:00pm 35.5 34.0 18.6 37 11.1 NW 24 35 13 19 1010.1 1009.6 0.0
23/11:30am 35.8 35.4 18.8 36 11.2 WNW 19 28 10 15 1010.9 1010.4 0.0
23/11:00am 35.5 34.7 18.1 35 11.4 NNW 19 32 10 17 1011.4 1010.9 0.0
23/10:30am 34.1 34.8 19.7 42 9.6 NW 15 20 8 11 1011.9 1011.4 0.0
23/10:00am 33.2 33.2 19.7 45 9.0 NNW 19 28 10 15 1011.9 1011.4 0.0
23/09:30am 32.6 33.5 20.8 49 7.9 NW 17 30 9 16 1012.2 1011.7 0.0
23/09:00am 32.0 33.6 21.5 53 7.1 N 15 22 8 12 1012.5 1012.0 0.0
23/08:30am 30.6 33.2 22.7 62 5.4 N 13 22 7 12 1012.8 1012.3 0.0
23/08:00am 29.3 32.1 23.0 69 4.3 NNW 13 20 7 11 1013.0 1012.5 0.0
23/07:30am 27.6 30.5 23.2 77 3.0 N 13 17 7 9 1012.9 1012.4 0.0
23/07:19am 27.3 30.8 23.5 80 2.6 N 11 20 6 11 1012.6 1012.1 0.0
23/07:00am 27.1 31.2 24.0 83 2.1 NW 9 15 5 8 1012.3 1011.8 0.0
23/06:41am 26.5 30.8 24.2 87 1.6 NW 9 17 5 9 1012.3 1011.8 0.0
23/06:30am 26.1 29.9 24.0 88 1.4 NW 11 17 6 9 1012.0 1011.5 0.0
23/06:00am 24.9 30.2 24.4 97 0.3 W 4 7 2 4 1011.9 1011.4 0.0
23/05:38am 24.1 28.7 23.8 98 0.2 W 6 9 3 5 1011.5 1011.0 0.0
23/05:30am 23.8 28.0 23.5 98 0.2 WNW 7 11 4 6 1011.4 1010.9 0.0
23/05:00am 23.6 27.8 23.1 97 0.3 NW 6 9 3 5 1011.1 1010.6 0.0
23/04:30am 24.0 28.3 23.3 96 0.5 WNW 6 7 3 4 1010.8 1010.3 0.0
23/04:00am 24.3 28.2 23.6 96 0.5 NNW 9 13 5 7 1010.4 1009.9 0.0
23/03:30am 24.6 28.6 23.7 95 0.6 N 9 13 5 7 1010.4 1009.9 0.0
23/03:00am 24.5 28.4 23.6 95 0.6 N 9 13 5 7 1010.4 1009.9 0.0
23/02:30am 24.9 28.5 23.7 93 0.8 N 11 15 6 8 1010.4 1009.9 0.0
23/02:00am 25.1 29.1 23.7 92 1.0 N 9 13 5 7 1010.5 1010.0 0.0
23/01:30am 25.3 28.9 23.7 91 1.1 N 11 15 6 8 1010.5 1010.0 0.0
23/01:00am 25.3 28.1 23.7 91 1.1 NW 15 20 8 11 1010.3 1009.8 0.0
23/12:30am 25.4 28.9 23.6 90 1.2 NNW 11 17 6 9 1011.1 1010.6 0.0
23/12:00am 25.7 28.9 23.7 89 1.4 NNW 13 19 7 10 1011.3 1010.8 0.0
 
Date/Time
WST
Temp
°C
App
Temp
°C
Dew
Point
Rel
Hum
%
Delta-T
°C
Wind Press
QNH
hPa
Press
MSL
hPa
Rain
since 9 am
mm
Dir
 
Spd
km/h
Gust
km/h
Spd
kts
Gust
kts
22/11:30pm 25.9 28.8 23.9 89 1.4 N 15 20 8 11 1011.4 1010.9 0.0
22/11:00pm 25.9 29.2 23.8 88 1.4 N 13 19 7 10 1011.8 1011.3 0.0
22/10:30pm 26.3 29.9 23.8 86 1.7 NNW 11 15 6 8 1011.9 1011.4 0.0
22/10:00pm 26.6 30.3 23.9 85 1.9 NNW 11 17 6 9 1011.9 1011.4 0.0
22/09:30pm 27.0 29.8 23.7 82 2.3 NNW 15 20 8 11 1012.0 1011.5 0.0
22/09:00pm 27.2 30.2 23.4 80 2.6 NNW 13 20 7 11 1012.1 1011.6 0.0
22/08:30pm 27.5 30.0 23.1 77 3.0 N 15 20 8 11 1011.5 1011.0 0.0
22/08:00pm 28.0 30.3 22.7 73 3.6 N 15 22 8 12 1011.3 1010.8 0.0
22/07:30pm 28.4 31.0 21.9 68 4.4 N 11 17 6 9 1010.9 1010.4 0.0
22/07:00pm 29.0 31.6 21.2 62 5.2 N 9 17 5 9 1010.5 1010.0 0.0
22/06:30pm 29.7 31.7 20.8 58 5.9 NNW 11 17 6 9 1010.1 1009.6 0.0
22/06:00pm 31.3 31.6 17.9 44 8.6 N 13 17 7 9 1009.9 1009.4 0.0
22/05:30pm 33.0 31.3 14.6 33 11.3 NNW 17 24 9 13 1009.4 1008.9 0.0
22/05:00pm 34.5 32.3 13.3 27 12.9 NW 17 26 9 14 1009.0 1008.5 0.0
22/04:30pm 35.7 33.3 12.6 25 14.0 NNW 17 26 9 14 1008.9 1008.4 0.0
22/04:00pm 36.6 32.7 10.7 21 15.3 NW 22 33 12 18 1008.7 1008.2 0.0
22/03:30pm 36.5 32.9 12.0 23 14.7 NW 22 30 12 16 1008.8 1008.3 0.0
22/03:00pm 36.9 34.0 13.0 24 14.6 NW 20 30 11 16 1008.8 1008.3 0.0
22/02:30pm 37.2 35.2 13.9 25 14.4 NW 17 26 9 14 1009.1 1008.6 0.0
22/02:00pm 37.0 34.8 14.3 26 14.1 NW 19 28 10 15 1009.4 1008.9 0.0
22/01:30pm 36.7 34.2 14.1 26 14.0 NW 20 39 11 21 1009.4 1008.9 0.0
22/01:00pm 37.3 35.4 15.7 27 13.7 NNW 20 28 11 15 1009.7 1009.2 0.0
22/12:30pm 36.9 35.3 16.5 30 13.1 NNW 20 32 11 17 1009.9 1009.4 0.0
22/12:00pm 36.5 35.6 18.1 33 12.1 NNW 20 30 11 16 1010.5 1010.0 0.0
22/11:30am 35.9 35.1 18.0 34 11.7 WNW 19 30 10 16 1011.0 1010.5 0.0
22/11:00am 35.2 34.9 19.1 38 10.6 NNW 19 28 10 15 1011.7 1011.2 0.0
22/10:30am 34.1 35.0 20.1 43 9.3 NNW 15 24 8 13 1012.1 1011.6 0.0
22/10:00am 33.3 34.7 21.1 48 8.2 N 15 24 8 13 1012.8 1012.3 0.0
22/09:30am 32.9 34.2 21.7 51 7.6 N 17 26 9 14 1012.7 1012.2 0.0
22/09:00am 31.3 33.0 22.3 58 6.1 NNW 17 28 9 15 1012.5 1012.0 0.0
22/08:30am 31.0 33.3 23.4 64 5.3 NNW 17 24 9 13 1012.8 1012.3 0.0
22/08:00am 29.4 31.1 23.1 69 4.3 N 19 26 10 14 1012.8 1012.3 0.0
22/07:45am 29.0 32.4 24.1 75 3.4 N 13 19 7 10 1012.7 1012.2 0.0
22/07:30am 28.1 31.4 23.9 78 2.9 N 13 19 7 10 1012.8 1012.3 0.0
22/07:04am 27.1 30.5 24.7 87 1.7 N 15 22 8 12 1012.4 1011.9 0.0
22/07:00am 26.8 30.5 24.5 87 1.6 N 13 22 7 12 1012.4 1011.9 0.0
22/06:30am 25.8 30.0 24.8 94 0.7 N 11 17 6 9 1011.8 1011.3 0.0
22/06:22am 25.5 29.7 24.8 96 0.5 N 11 17 6 9 1011.8 1011.3 0.0
22/06:00am 24.5 28.4 24.3 99 0.1 N 11 17 6 9 1011.5 1011.0 0.0
22/05:45am 24.1 28.2 23.9 99 0.1 N 9 13 5 7 1011.4 1010.9 0.0
22/05:30am 24.0 28.4 23.8 99 0.1 NNE 7 13 4 7 1011.4 1010.9 0.0
22/05:00am 24.1 28.4 23.6 97 0.3 NNE 7 9 4 5 1011.4 1010.9 0.0
22/04:34am 24.6 29.2 24.1 97 0.3 NNE 7 9 4 5 1011.2 1010.7 0.0
22/04:30am 24.6 29.2 24.1 97 0.3 NNE 7 9 4 5 1011.1 1010.6 0.0
22/04:00am 24.8 29.1 24.3 97 0.3 N 9 13 5 7 1010.6 1010.1 0.0
22/03:57am 24.7 29.0 24.2 97 0.3 N 9 13 5 7 1010.5 1010.0 0.0
22/03:30am 24.7 28.5 24.0 96 0.5 NNW 11 15 6 8 1010.0 1009.5 0.0
22/03:00am 24.8 28.5 23.9 95 0.6 NNW 11 17 6 9 1010.1 1009.6 0.0
22/02:30am 24.9 28.9 23.7 93 0.8 N 9 15 5 8 1010.2 1009.7 0.0
22/02:00am 25.1 28.6 23.5 91 1.1 N 11 15 6 8 1010.5 1010.0 0.0
22/01:30am 25.3 28.2 23.2 88 1.4 NNE 13 19 7 10 1010.8 1010.3 0.0
22/01:00am 25.0 28.1 22.9 88 1.4 NNE 11 17 6 9 1010.6 1010.1 0.0
22/12:30am 25.3 28.0 22.8 86 1.7 NNW 13 19 7 10 1010.3 1009.8 0.0
22/12:00am 25.8 28.8 22.7 83 2.1 N 11 15 6 8 1010.8 1010.3 0.0
 
Date/Time
WST
Temp
°C
App
Temp
°C
Dew
Point
Rel
Hum
%
Delta-T
°C
Wind Press
QNH
hPa
Press
MSL
hPa
Rain
since 9 am
mm
Dir
 
Spd
km/h
Gust
km/h
Spd
kts
Gust
kts
21/11:30pm 26.3 29.3 22.6 80 2.5 N 11 15 6 8 1011.1 1010.6 0.0
21/11:00pm 26.8 30.0 22.4 77 3.0 N 9 15 5 8 1011.4 1010.9 0.0
21/10:30pm 27.4 30.9 22.8 76 3.1 N 9 15 5 8 1011.8 1011.3 0.0
21/10:00pm 27.6 30.2 21.9 71 3.8 N 11 13 6 7 1011.9 1011.4 0.0
21/09:30pm 28.2 30.8 21.2 65 4.7 N 9 13 5 7 1011.8 1011.3 0.0
21/09:00pm 28.6 30.7 20.9 63 5.1 N 11 13 6 7 1011.4 1010.9 0.0
21/08:30pm 29.0 30.8 19.6 57 6.1 N 9 13 5 7 1011.3 1010.8 0.0
21/08:00pm 29.6 30.9 19.3 54 6.7 NNW 11 15 6 8 1010.9 1010.4 0.0
21/07:30pm 29.9 30.9 17.7 48 7.8 NNW 9 15 5 8 1010.9 1010.4 0.0
21/07:00pm 31.2 30.4 17.1 42 9.0 NW 17 28 9 15 1010.3 1009.8 0.0
21/06:30pm 32.4 31.5 13.6 32 11.4 NNW 11 13 6 7 1009.7 1009.2 0.0
21/06:00pm 34.6 33.1 10.4 23 14.1 NNW 9 13 5 7 1009.2 1008.7 0.0
21/05:30pm 36.6 34.4 9.2 19 15.8 NNW 11 22 6 12 1008.8 1008.3 0.0
21/05:00pm 38.5 35.5 9.1 17 17.1 NNW 15 20 8 11 1008.5 1007.9 0.0
21/04:30pm 40.9 36.9 0.2 8 21.0 SSE 11 20 6 11 1008.1 1007.5 0.0
21/04:00pm 41.1 35.9 0.3 8 21.1 E 17 24 9 13 1008.0 1007.4 0.0
21/03:30pm 41.4 37.8 0.5 8 21.2 ESE 9 17 5 9 1008.1 1007.5 0.0
21/03:00pm 41.3 36.2 0.5 8 21.2 ESE 17 26 9 14 1008.2 1007.6 0.0
21/02:30pm 41.3 35.8 2.1 9 20.8 E 20 32 11 17 1008.4 1007.8 0.0
21/02:00pm 41.6 35.4 2.3 9 21.0 SSE 24 32 13 17 1009.0 1008.5 0.0
21/01:30pm 40.8 36.2 1.7 9 20.6 ESE 15 22 8 12 1009.4 1008.9 0.0
21/01:00pm 41.0 36.7 3.4 10 20.3 E 15 24 8 13 1010.0 1009.5 0.0
21/12:30pm 39.9 36.9 3.9 11 19.5 ESE 9 22 5 12 1010.6 1010.1 0.0
21/12:00pm 39.5 34.7 4.8 12 19.0 S 19 32 10 17 1011.3 1010.8 0.0
21/11:30am 38.9 34.4 4.4 12 18.7 S 17 28 9 15 1012.2 1011.7 0.0
21/11:00am 38.5 33.9 6.3 14 17.9 ESE 20 28 11 15 1012.6 1012.1 0.0
21/10:30am 37.4 32.6 7.3 16 16.9 SSW 22 30 12 16 1013.2 1012.7 0.0
21/10:00am 36.4 32.6 9.1 19 15.7 S 19 30 10 16 1013.7 1013.2 0.0
21/09:30am 34.0 31.9 12.4 27 12.9 S 15 20 8 11 1014.2 1013.7 0.0
21/09:00am 32.4 30.4 12.6 30 11.8 SSW 15 19 8 10 1014.3 1013.8 0.0
21/08:30am 31.1 31.3 14.3 36 10.2 WSW 6 9 3 5 1014.5 1014.0 0.0
21/08:00am 29.4 30.1 15.5 43 8.6 WNW 6 11 3 6 1014.8 1014.2 0.0
21/07:30am 28.4 29.0 16.7 49 7.3 NW 9 15 5 8 1014.3 1013.8 0.0
21/07:00am 27.1 27.8 17.0 54 6.3 NNW 9 13 5 7 1014.2 1013.7 0.0
21/06:30am 25.6 27.1 18.0 63 4.8 N 7 11 4 6 1014.2 1013.7 0.0
21/06:00am 23.7 25.4 18.6 73 3.2 NE 7 13 4 7 1013.7 1013.2 0.0
21/05:30am 22.2 23.4 17.3 74 3.0 NE 7 11 4 6 1013.4 1012.9 0.0
21/05:00am 22.2 23.5 17.1 73 3.1 NE 6 11 3 6 1013.0 1012.5 0.0
21/04:30am 23.7 25.1 17.9 70 3.6 NNW 7 15 4 8 1012.5 1012.0 0.0
21/04:00am 24.5 23.6 18.2 68 4.0 SSW 20 28 11 15 1011.3 1010.8 0.0
21/03:30am 25.2 23.6 18.4 66 4.3 SW 24 32 13 17 1010.8 1010.3 0.0
21/03:00am 25.1 23.8 19.0 69 3.9 SW 24 32 13 17 1010.6 1010.1 0.0
21/02:30am 25.1 24.6 19.2 70 3.8 SSW 20 28 11 15 1010.5 1010.0 0.0
21/02:00am 25.4 24.5 19.1 68 4.0 SW 22 32 12 17 1010.4 1009.9 0.0
21/01:30am 25.4 24.4 18.8 67 4.2 SSW 22 28 12 15 1010.5 1010.0 0.0
21/01:00am 25.5 24.9 18.9 67 4.2 SW 20 28 11 15 1010.5 1010.0 0.0
21/12:30am 26.0 25.3 18.7 64 4.7 SW 20 26 11 14 1010.8 1010.3 0.0
21/12:00am 26.4 25.0 16.9 56 5.9 SW 20 26 11 14 1011.1 1010.6 0.0
 
Date/Time
WST
Temp
°C
App
Temp
°C
Dew
Point
Rel
Hum
%
Delta-T
°C
Wind Press
QNH
hPa
Press
MSL
hPa
Rain
since 9 am
mm
Dir
 
Spd
km/h
Gust
km/h
Spd
kts
Gust
kts
20/11:30pm 26.5 25.0 15.2 49 6.9 SW 17 19 9 10 1011.6 1011.1 0.0
20/11:00pm 27.0 25.5 13.0 42 8.2 SW 13 17 7 9 1011.9 1011.4 0.0
20/10:30pm 27.9 25.1 11.5 36 9.4 WSW 17 19 9 10 1012.2 1011.7 0.0
20/10:00pm 29.1 26.1 10.7 32 10.5 WSW 17 22 9 12 1012.5 1012.0 0.0
20/09:30pm 30.2 26.5 10.2 29 11.4 WSW 20 26 11 14 1012.5 1012.0 0.0
20/09:00pm 30.5 27.3 11.9 31 10.9 WSW 20 28 11 15 1012.6 1012.1 0.0
20/08:30pm 29.2 30.5 19.2 54 6.5 W 11 15 6 8 1012.5 1012.0 0.0
20/08:00pm 29.3 30.8 19.0 53 6.7 NW 9 13 5 7 1012.2 1011.7 0.0
20/07:30pm 29.2 30.7 18.0 51 7.2 N 7 13 4 7 1011.7 1011.2 0.0
20/07:00pm 29.7 30.8 17.2 47 7.9 NNW 7 11 4 6 1011.4 1010.9 0.0
20/06:30pm 30.8 30.9 17.5 45 8.5 NNW 13 17 7 9 1010.9 1010.4 0.0
20/06:00pm 32.3 31.8 17.7 41 9.4 NNW 17 26 9 14 1010.2 1009.7 0.0
20/05:30pm 36.8 34.6 7.8 17 16.4 SW 9 13 5 7 1009.6 1009.1 0.0
20/05:00pm 38.3 35.9 7.1 15 17.6 S 9 15 5 8 1009.3 1008.8 0.0
20/04:30pm 38.9 37.0 6.6 14 18.1 W 6 9 3 5 1009.0 1008.5 0.0
20/04:00pm 39.4 37.6 7.0 14 18.3 WNW 6 19 3 10 1008.9 1008.4 0.0

Other Formats:

Comma delimited format used in spreadsheet applications
http://www.bom.gov.au/fwo/IDW60801/IDW60801.94204.axf

JavaScript Object Notation format (JSON) in row-major order
http://www.bom.gov.au/fwo/IDW60801/IDW60801.94204.json